sensor_id;sensor_type;location;lat;lon;timestamp;temperature;humidity
23803;DHT22;12082;51.786;6.018;2023-11-21T00:02:20;8.20;99.90
23803;DHT22;12082;51.786;6.018;2023-11-21T00:04:45;8.20;99.90
23803;DHT22;12082;51.786;6.018;2023-11-21T00:07:11;8.10;99.90
23803;DHT22;12082;51.786;6.018;2023-11-21T00:09:37;8.00;99.90
23803;DHT22;12082;51.786;6.018;2023-11-21T00:12:03;8.00;99.90
23803;DHT22;12082;51.786;6.018;2023-11-21T00:14:28;8.00;99.90
23803;DHT22;12082;51.786;6.018;2023-11-21T00:16:54;7.90;99.90
23803;DHT22;12082;51.786;6.018;2023-11-21T00:19:20;7.80;99.90
23803;DHT22;12082;51.786;6.018;2023-11-21T00:21:45;7.90;99.90
23803;DHT22;12082;51.786;6.018;2023-11-21T00:24:12;7.90;99.90
23803;DHT22;12082;51.786;6.018;2023-11-21T00:26:39;7.80;99.90
23803;DHT22;12082;51.786;6.018;2023-11-21T00:29:05;7.80;99.90
23803;DHT22;12082;51.786;6.018;2023-11-21T00:31:34;7.80;99.90
23803;DHT22;12082;51.786;6.018;2023-11-21T00:34:00;7.80;99.90
23803;DHT22;12082;51.786;6.018;2023-11-21T00:36:26;7.80;99.90
23803;DHT22;12082;51.786;6.018;2023-11-21T00:38:51;7.90;99.90
23803;DHT22;12082;51.786;6.018;2023-11-21T00:41:17;7.90;99.90
23803;DHT22;12082;51.786;6.018;2023-11-21T00:43:42;7.90;99.90
23803;DHT22;12082;51.786;6.018;2023-11-21T00:46:09;7.90;99.90
23803;DHT22;12082;51.786;6.018;2023-11-21T00:48:35;8.00;99.90
23803;DHT22;12082;51.786;6.018;2023-11-21T00:51:00;8.00;99.90
23803;DHT22;12082;51.786;6.018;2023-11-21T00:53:26;8.10;99.90
23803;DHT22;12082;51.786;6.018;2023-11-21T00:55:52;8.10;99.90
23803;DHT22;12082;51.786;6.018;2023-11-21T00:58:23;8.10;99.90
23803;DHT22;12082;51.786;6.018;2023-11-21T01:00:48;8.00;99.90
23803;DHT22;12082;51.786;6.018;2023-11-21T01:03:14;8.10;99.90
23803;DHT22;12082;51.786;6.018;2023-11-21T01:05:39;8.10;99.90
23803;DHT22;12082;51.786;6.018;2023-11-21T01:08:05;8.10;99.90
23803;DHT22;12082;51.786;6.018;2023-11-21T01:10:31;8.10;99.90
23803;DHT22;12082;51.786;6.018;2023-11-21T01:12:56;8.10;99.90
23803;DHT22;12082;51.786;6.018;2023-11-21T01:15:23;8.10;99.90
23803;DHT22;12082;51.786;6.018;2023-11-21T01:17:51;8.10;99.90
23803;DHT22;12082;51.786;6.018;2023-11-21T01:20:17;8.20;99.90
23803;DHT22;12082;51.786;6.018;2023-11-21T01:22:43;8.20;99.90
23803;DHT22;12082;51.786;6.018;2023-11-21T01:25:08;8.20;99.90
23803;DHT22;12082;51.786;6.018;2023-11-21T01:27:34;8.20;99.90
23803;DHT22;12082;51.786;6.018;2023-11-21T01:30:01;8.20;99.90
23803;DHT22;12082;51.786;6.018;2023-11-21T01:32:27;8.20;99.90
23803;DHT22;12082;51.786;6.018;2023-11-21T01:34:54;8.20;99.90
23803;DHT22;12082;51.786;6.018;2023-11-21T01:37:19;8.20;99.90
23803;DHT22;12082;51.786;6.018;2023-11-21T01:39:45;8.20;99.90
23803;DHT22;12082;51.786;6.018;2023-11-21T01:42:12;8.20;99.90
23803;DHT22;12082;51.786;6.018;2023-11-21T01:44:38;8.20;99.90
23803;DHT22;12082;51.786;6.018;2023-11-21T01:47:05;8.20;99.90
23803;DHT22;12082;51.786;6.018;2023-11-21T01:49:35;8.20;99.90
23803;DHT22;12082;51.786;6.018;2023-11-21T01:52:01;8.20;99.90
23803;DHT22;12082;51.786;6.018;2023-11-21T01:54:27;8.20;99.90
23803;DHT22;12082;51.786;6.018;2023-11-21T01:56:57;8.20;99.90
23803;DHT22;12082;51.786;6.018;2023-11-21T01:59:30;8.20;99.90
23803;DHT22;12082;51.786;6.018;2023-11-21T02:01:59;8.20;99.90
23803;DHT22;12082;51.786;6.018;2023-11-21T02:04:24;8.20;99.90
23803;DHT22;12082;51.786;6.018;2023-11-21T02:06:50;8.20;99.90
23803;DHT22;12082;51.786;6.018;2023-11-21T02:09:16;8.20;99.90
23803;DHT22;12082;51.786;6.018;2023-11-21T02:11:43;8.20;99.90
23803;DHT22;12082;51.786;6.018;2023-11-21T02:14:09;8.20;99.90
23803;DHT22;12082;51.786;6.018;2023-11-21T02:16:35;8.20;99.90
23803;DHT22;12082;51.786;6.018;2023-11-21T02:19:02;8.20;99.90
23803;DHT22;12082;51.786;6.018;2023-11-21T02:21:30;8.20;99.90
23803;DHT22;12082;51.786;6.018;2023-11-21T02:23:56;8.30;99.90
23803;DHT22;12082;51.786;6.018;2023-11-21T02:26:22;8.20;99.90
23803;DHT22;12082;51.786;6.018;2023-11-21T02:28:47;8.20;99.90
23803;DHT22;12082;51.786;6.018;2023-11-21T02:31:13;8.30;99.90
23803;DHT22;12082;51.786;6.018;2023-11-21T02:33:39;9.10;99.90
23803;DHT22;12082;51.786;6.018;2023-11-21T02:36:04;8.30;99.90
23803;DHT22;12082;51.786;6.018;2023-11-21T02:38:31;8.20;99.90
23803;DHT22;12082;51.786;6.018;2023-11-21T02:40:57;8.20;99.90
23803;DHT22;12082;51.786;6.018;2023-11-21T02:43:24;8.20;99.90
23803;DHT22;12082;51.786;6.018;2023-11-21T02:45:50;8.20;99.90
23803;DHT22;12082;51.786;6.018;2023-11-21T02:48:15;8.20;99.90
23803;DHT22;12082;51.786;6.018;2023-11-21T02:50:41;8.20;99.90
23803;DHT22;12082;51.786;6.018;2023-11-21T02:53:08;8.20;99.90
23803;DHT22;12082;51.786;6.018;2023-11-21T02:55:36;8.20;99.90
23803;DHT22;12082;51.786;6.018;2023-11-21T02:58:02;8.20;99.90
23803;DHT22;12082;51.786;6.018;2023-11-21T03:00:29;8.10;99.90
23803;DHT22;12082;51.786;6.018;2023-11-21T03:02:55;8.10;99.90
23803;DHT22;12082;51.786;6.018;2023-11-21T03:05:21;8.10;99.90
23803;DHT22;12082;51.786;6.018;2023-11-21T03:07:47;8.00;99.90
23803;DHT22;12082;51.786;6.018;2023-11-21T03:10:13;8.10;99.90
23803;DHT22;12082;51.786;6.018;2023-11-21T03:12:39;8.10;99.90
23803;DHT22;12082;51.786;6.018;2023-11-21T03:15:06;8.00;99.90
23803;DHT22;12082;51.786;6.018;2023-11-21T03:17:32;8.00;99.90
23803;DHT22;12082;51.786;6.018;2023-11-21T03:19:59;8.00;99.90
23803;DHT22;12082;51.786;6.018;2023-11-21T03:22:25;8.00;99.90
23803;DHT22;12082;51.786;6.018;2023-11-21T03:24:51;8.00;99.90
23803;DHT22;12082;51.786;6.018;2023-11-21T03:27:18;8.00;99.90
23803;DHT22;12082;51.786;6.018;2023-11-21T03:29:44;8.00;99.90
23803;DHT22;12082;51.786;6.018;2023-11-21T03:32:10;8.00;99.90
23803;DHT22;12082;51.786;6.018;2023-11-21T03:34:56;8.00;99.90
23803;DHT22;12082;51.786;6.018;2023-11-21T03:37:22;7.90;99.90
23803;DHT22;12082;51.786;6.018;2023-11-21T03:39:47;7.90;99.90
23803;DHT22;12082;51.786;6.018;2023-11-21T03:42:13;7.90;99.90
23803;DHT22;12082;51.786;6.018;2023-11-21T03:44:39;7.90;99.90
23803;DHT22;12082;51.786;6.018;2023-11-21T03:47:04;7.90;99.90
23803;DHT22;12082;51.786;6.018;2023-11-21T03:49:30;7.90;99.90
23803;DHT22;12082;51.786;6.018;2023-11-21T03:51:56;7.90;99.90
23803;DHT22;12082;51.786;6.018;2023-11-21T03:54:22;7.90;99.90
23803;DHT22;12082;51.786;6.018;2023-11-21T03:56:47;7.90;99.90
23803;DHT22;12082;51.786;6.018;2023-11-21T03:59:13;7.80;99.90
23803;DHT22;12082;51.786;6.018;2023-11-21T04:01:38;7.80;99.90
23803;DHT22;12082;51.786;6.018;2023-11-21T04:04:04;7.80;99.90
23803;DHT22;12082;51.786;6.018;2023-11-21T04:06:29;7.80;99.90
23803;DHT22;12082;51.786;6.018;2023-11-21T04:08:55;7.80;99.90
23803;DHT22;12082;51.786;6.018;2023-11-21T04:11:21;7.80;99.90
23803;DHT22;12082;51.786;6.018;2023-11-21T04:13:47;7.90;99.90
23803;DHT22;12082;51.786;6.018;2023-11-21T04:16:12;7.90;99.90
23803;DHT22;12082;51.786;6.018;2023-11-21T04:18:38;7.80;99.90
23803;DHT22;12082;51.786;6.018;2023-11-21T04:21:05;7.90;99.90
23803;DHT22;12082;51.786;6.018;2023-11-21T04:23:31;7.90;99.90
23803;DHT22;12082;51.786;6.018;2023-11-21T04:25:57;7.90;99.90
23803;DHT22;12082;51.786;6.018;2023-11-21T04:28:23;7.80;99.90
23803;DHT22;12082;51.786;6.018;2023-11-21T04:30:50;7.80;99.90
23803;DHT22;12082;51.786;6.018;2023-11-21T04:33:15;7.80;99.90
23803;DHT22;12082;51.786;6.018;2023-11-21T04:35:41;7.70;99.90
23803;DHT22;12082;51.786;6.018;2023-11-21T04:38:07;7.70;99.90
23803;DHT22;12082;51.786;6.018;2023-11-21T04:40:32;7.70;99.90
23803;DHT22;12082;51.786;6.018;2023-11-21T04:42:58;7.70;99.90
23803;DHT22;12082;51.786;6.018;2023-11-21T04:45:24;8.30;99.90
23803;DHT22;12082;51.786;6.018;2023-11-21T04:47:49;7.70;99.90
23803;DHT22;12082;51.786;6.018;2023-11-21T04:50:15;7.70;99.90
23803;DHT22;12082;51.786;6.018;2023-11-21T04:52:40;7.70;99.90
23803;DHT22;12082;51.786;6.018;2023-11-21T04:55:06;7.70;99.90
23803;DHT22;12082;51.786;6.018;2023-11-21T04:57:35;7.70;99.90
23803;DHT22;12082;51.786;6.018;2023-11-21T05:00:01;7.70;99.90
23803;DHT22;12082;51.786;6.018;2023-11-21T05:02:31;7.60;99.90
23803;DHT22;12082;51.786;6.018;2023-11-21T05:04:57;7.60;99.90
23803;DHT22;12082;51.786;6.018;2023-11-21T05:07:23;7.60;99.90
23803;DHT22;12082;51.786;6.018;2023-11-21T05:09:49;7.60;99.90
23803;DHT22;12082;51.786;6.018;2023-11-21T05:12:15;7.60;99.90
23803;DHT22;12082;51.786;6.018;2023-11-21T05:14:41;7.60;99.90
23803;DHT22;12082;51.786;6.018;2023-11-21T05:17:07;7.50;99.90
23803;DHT22;12082;51.786;6.018;2023-11-21T05:19:33;7.60;99.90
23803;DHT22;12082;51.786;6.018;2023-11-21T05:22:00;7.60;99.90
23803;DHT22;12082;51.786;6.018;2023-11-21T05:24:26;7.50;99.90
23803;DHT22;12082;51.786;6.018;2023-11-21T05:26:52;7.60;99.90
23803;DHT22;12082;51.786;6.018;2023-11-21T05:29:18;8.20;99.90
23803;DHT22;12082;51.786;6.018;2023-11-21T05:31:43;7.50;99.90
23803;DHT22;12082;51.786;6.018;2023-11-21T05:34:09;7.50;99.90
23803;DHT22;12082;51.786;6.018;2023-11-21T05:36:34;7.50;99.90
23803;DHT22;12082;51.786;6.018;2023-11-21T05:39:00;7.50;99.90
23803;DHT22;12082;51.786;6.018;2023-11-21T05:41:26;7.60;99.90
23803;DHT22;12082;51.786;6.018;2023-11-21T05:43:51;7.60;99.90
23803;DHT22;12082;51.786;6.018;2023-11-21T05:46:17;7.60;99.90
23803;DHT22;12082;51.786;6.018;2023-11-21T05:48:43;7.60;99.90
23803;DHT22;12082;51.786;6.018;2023-11-21T05:51:09;7.70;99.90
23803;DHT22;12082;51.786;6.018;2023-11-21T05:53:34;7.60;99.90
23803;DHT22;12082;51.786;6.018;2023-11-21T05:56:00;7.70;99.90
23803;DHT22;12082;51.786;6.018;2023-11-21T05:58:25;7.70;99.90
23803;DHT22;12082;51.786;6.018;2023-11-21T06:00:51;7.60;99.90
23803;DHT22;12082;51.786;6.018;2023-11-21T06:03:17;7.60;99.90
23803;DHT22;12082;51.786;6.018;2023-11-21T06:05:42;7.70;99.90
23803;DHT22;12082;51.786;6.018;2023-11-21T06:08:08;7.60;99.90
23803;DHT22;12082;51.786;6.018;2023-11-21T06:10:34;7.60;99.90
23803;DHT22;12082;51.786;6.018;2023-11-21T06:12:59;7.60;99.90
23803;DHT22;12082;51.786;6.018;2023-11-21T06:15:25;7.60;99.90
23803;DHT22;12082;51.786;6.018;2023-11-21T06:17:51;7.60;99.90
23803;DHT22;12082;51.786;6.018;2023-11-21T06:20:21;7.70;99.90
23803;DHT22;12082;51.786;6.018;2023-11-21T06:22:49;7.70;99.90
23803;DHT22;12082;51.786;6.018;2023-11-21T06:25:15;7.70;99.90
23803;DHT22;12082;51.786;6.018;2023-11-21T06:27:43;7.70;99.90
23803;DHT22;12082;51.786;6.018;2023-11-21T06:30:10;7.70;99.90
23803;DHT22;12082;51.786;6.018;2023-11-21T06:32:37;7.70;99.90
23803;DHT22;12082;51.786;6.018;2023-11-21T06:35:05;7.70;99.90
23803;DHT22;12082;51.786;6.018;2023-11-21T06:37:31;7.60;99.90
23803;DHT22;12082;51.786;6.018;2023-11-21T06:39:58;7.70;99.90
23803;DHT22;12082;51.786;6.018;2023-11-21T06:42:24;7.60;99.90
23803;DHT22;12082;51.786;6.018;2023-11-21T06:44:50;7.60;99.90
23803;DHT22;12082;51.786;6.018;2023-11-21T06:47:20;7.60;99.90
23803;DHT22;12082;51.786;6.018;2023-11-21T06:49:46;7.60;99.90
23803;DHT22;12082;51.786;6.018;2023-11-21T06:52:14;7.60;99.90
23803;DHT22;12082;51.786;6.018;2023-11-21T06:54:40;7.60;99.90
23803;DHT22;12082;51.786;6.018;2023-11-21T06:57:05;7.60;99.90
23803;DHT22;12082;51.786;6.018;2023-11-21T06:59:31;7.60;99.90
23803;DHT22;12082;51.786;6.018;2023-11-21T07:01:57;7.70;99.90
23803;DHT22;12082;51.786;6.018;2023-11-21T07:04:22;7.60;99.90
23803;DHT22;12082;51.786;6.018;2023-11-21T07:06:48;7.70;99.90
23803;DHT22;12082;51.786;6.018;2023-11-21T07:09:13;7.70;99.90
23803;DHT22;12082;51.786;6.018;2023-11-21T07:11:41;7.70;99.90
23803;DHT22;12082;51.786;6.018;2023-11-21T07:14:06;7.70;99.90
23803;DHT22;12082;51.786;6.018;2023-11-21T07:16:36;7.60;99.90
23803;DHT22;12082;51.786;6.018;2023-11-21T07:19:03;7.70;99.90
23803;DHT22;12082;51.786;6.018;2023-11-21T07:21:31;7.80;99.90
23803;DHT22;12082;51.786;6.018;2023-11-21T07:23:57;7.80;99.90
23803;DHT22;12082;51.786;6.018;2023-11-21T07:26:23;7.80;99.90
23803;DHT22;12082;51.786;6.018;2023-11-21T07:28:49;7.80;99.90
23803;DHT22;12082;51.786;6.018;2023-11-21T07:31:15;7.80;99.90
23803;DHT22;12082;51.786;6.018;2023-11-21T07:33:41;7.80;99.90
23803;DHT22;12082;51.786;6.018;2023-11-21T07:36:07;7.90;99.90
23803;DHT22;12082;51.786;6.018;2023-11-21T07:38:32;7.90;99.90
23803;DHT22;12082;51.786;6.018;2023-11-21T07:40:58;7.90;99.90
23803;DHT22;12082;51.786;6.018;2023-11-21T07:43:26;7.90;99.90
23803;DHT22;12082;51.786;6.018;2023-11-21T07:45:52;7.90;99.90
23803;DHT22;12082;51.786;6.018;2023-11-21T07:48:17;7.90;99.90
23803;DHT22;12082;51.786;6.018;2023-11-21T07:50:43;7.90;99.90
23803;DHT22;12082;51.786;6.018;2023-11-21T07:53:09;8.00;99.90
23803;DHT22;12082;51.786;6.018;2023-11-21T07:55:34;8.00;99.90
23803;DHT22;12082;51.786;6.018;2023-11-21T07:58:01;8.00;99.90
23803;DHT22;12082;51.786;6.018;2023-11-21T08:00:27;8.00;99.90
23803;DHT22;12082;51.786;6.018;2023-11-21T08:02:55;8.00;99.90
23803;DHT22;12082;51.786;6.018;2023-11-21T08:05:21;8.00;99.90
23803;DHT22;12082;51.786;6.018;2023-11-21T08:07:46;8.10;99.90
23803;DHT22;12082;51.786;6.018;2023-11-21T08:10:12;8.10;99.90
23803;DHT22;12082;51.786;6.018;2023-11-21T08:12:38;8.10;99.90
23803;DHT22;12082;51.786;6.018;2023-11-21T08:15:04;8.20;99.90
23803;DHT22;12082;51.786;6.018;2023-11-21T08:17:31;8.10;99.90
23803;DHT22;12082;51.786;6.018;2023-11-21T08:19:58;8.20;99.90
23803;DHT22;12082;51.786;6.018;2023-11-21T08:22:23;8.30;99.90
23803;DHT22;12082;51.786;6.018;2023-11-21T08:24:50;8.30;99.90
23803;DHT22;12082;51.786;6.018;2023-11-21T08:27:15;8.30;99.90
23803;DHT22;12082;51.786;6.018;2023-11-21T08:29:42;8.30;99.90
23803;DHT22;12082;51.786;6.018;2023-11-21T08:32:07;8.30;99.90
23803;DHT22;12082;51.786;6.018;2023-11-21T08:34:33;8.30;99.90
23803;DHT22;12082;51.786;6.018;2023-11-21T08:36:59;8.40;99.90
23803;DHT22;12082;51.786;6.018;2023-11-21T08:39:24;8.40;99.90
23803;DHT22;12082;51.786;6.018;2023-11-21T08:41:52;8.40;99.90
23803;DHT22;12082;51.786;6.018;2023-11-21T08:44:18;8.40;99.90
23803;DHT22;12082;51.786;6.018;2023-11-21T08:46:44;8.40;99.90
23803;DHT22;12082;51.786;6.018;2023-11-21T08:49:12;8.40;99.90
23803;DHT22;12082;51.786;6.018;2023-11-21T08:51:38;8.50;99.90
23803;DHT22;12082;51.786;6.018;2023-11-21T08:54:04;8.50;99.90
23803;DHT22;12082;51.786;6.018;2023-11-21T08:56:33;8.50;99.90
23803;DHT22;12082;51.786;6.018;2023-11-21T08:58:59;8.50;99.90
23803;DHT22;12082;51.786;6.018;2023-11-21T09:01:27;8.50;99.90
23803;DHT22;12082;51.786;6.018;2023-11-21T09:03:53;8.50;99.90
23803;DHT22;12082;51.786;6.018;2023-11-21T09:06:19;8.60;99.90
23803;DHT22;12082;51.786;6.018;2023-11-21T09:08:44;8.70;99.90
23803;DHT22;12082;51.786;6.018;2023-11-21T09:11:10;8.80;99.90
23803;DHT22;12082;51.786;6.018;2023-11-21T09:13:36;8.80;99.90
23803;DHT22;12082;51.786;6.018;2023-11-21T09:16:02;8.70;99.90
23803;DHT22;12082;51.786;6.018;2023-11-21T09:18:27;8.60;99.90
23803;DHT22;12082;51.786;6.018;2023-11-21T09:20:53;8.60;99.90
23803;DHT22;12082;51.786;6.018;2023-11-21T09:23:18;8.70;99.90
23803;DHT22;12082;51.786;6.018;2023-11-21T09:25:44;8.70;99.90
23803;DHT22;12082;51.786;6.018;2023-11-21T09:28:12;8.70;99.90
23803;DHT22;12082;51.786;6.018;2023-11-21T09:30:37;8.80;99.90
23803;DHT22;12082;51.786;6.018;2023-11-21T09:33:04;8.70;99.90
23803;DHT22;12082;51.786;6.018;2023-11-21T09:35:32;8.80;99.90
23803;DHT22;12082;51.786;6.018;2023-11-21T09:37:58;8.60;99.90
23803;DHT22;12082;51.786;6.018;2023-11-21T09:40:24;8.70;99.90
23803;DHT22;12082;51.786;6.018;2023-11-21T09:42:54;8.80;99.90
23803;DHT22;12082;51.786;6.018;2023-11-21T09:45:28;8.80;99.90
23803;DHT22;12082;51.786;6.018;2023-11-21T09:47:55;8.70;99.90
23803;DHT22;12082;51.786;6.018;2023-11-21T09:50:22;8.80;99.90
23803;DHT22;12082;51.786;6.018;2023-11-21T09:53:06;8.50;99.90
23803;DHT22;12082;51.786;6.018;2023-11-21T09:55:37;8.90;99.90
23803;DHT22;12082;51.786;6.018;2023-11-21T09:58:04;8.90;99.90
23803;DHT22;12082;51.786;6.018;2023-11-21T10:00:33;8.80;99.90
23803;DHT22;12082;51.786;6.018;2023-11-21T10:02:59;8.80;99.90
23803;DHT22;12082;51.786;6.018;2023-11-21T10:05:25;8.80;99.90
23803;DHT22;12082;51.786;6.018;2023-11-21T10:07:51;8.70;99.90
23803;DHT22;12082;51.786;6.018;2023-11-21T10:10:22;8.80;99.90
23803;DHT22;12082;51.786;6.018;2023-11-21T10:12:50;8.90;99.90
23803;DHT22;12082;51.786;6.018;2023-11-21T10:15:22;9.10;99.90
23803;DHT22;12082;51.786;6.018;2023-11-21T10:17:49;9.20;99.90
23803;DHT22;12082;51.786;6.018;2023-11-21T10:20:15;9.20;99.90
23803;DHT22;12082;51.786;6.018;2023-11-21T10:22:42;9.30;99.90
23803;DHT22;12082;51.786;6.018;2023-11-21T10:25:09;9.30;99.90
23803;DHT22;12082;51.786;6.018;2023-11-21T10:27:36;9.30;99.90
23803;DHT22;12082;51.786;6.018;2023-11-21T10:30:03;9.10;99.90
23803;DHT22;12082;51.786;6.018;2023-11-21T10:32:29;9.20;99.90
23803;DHT22;12082;51.786;6.018;2023-11-21T10:35:01;9.30;99.90
23803;DHT22;12082;51.786;6.018;2023-11-21T10:37:34;9.20;99.90
23803;DHT22;12082;51.786;6.018;2023-11-21T10:40:00;9.30;99.90
23803;DHT22;12082;51.786;6.018;2023-11-21T10:42:25;9.30;99.90
23803;DHT22;12082;51.786;6.018;2023-11-21T10:47:19;9.50;99.90
23803;DHT22;12082;51.786;6.018;2023-11-21T10:49:48;9.50;99.90
23803;DHT22;12082;51.786;6.018;2023-11-21T10:52:14;9.50;99.90
23803;DHT22;12082;51.786;6.018;2023-11-21T10:54:43;9.60;99.90
23803;DHT22;12082;51.786;6.018;2023-11-21T10:57:10;9.70;99.90
23803;DHT22;12082;51.786;6.018;2023-11-21T10:59:36;9.70;99.90
23803;DHT22;12082;51.786;6.018;2023-11-21T11:02:14;9.70;99.90
23803;DHT22;12082;51.786;6.018;2023-11-21T11:04:42;9.80;99.90
23803;DHT22;12082;51.786;6.018;2023-11-21T11:07:08;10.00;99.90
23803;DHT22;12082;51.786;6.018;2023-11-21T11:09:37;10.10;99.90
23803;DHT22;12082;51.786;6.018;2023-11-21T11:12:03;10.10;99.90
23803;DHT22;12082;51.786;6.018;2023-11-21T11:14:30;10.20;99.90
23803;DHT22;12082;51.786;6.018;2023-11-21T11:16:58;10.20;99.90
23803;DHT22;12082;51.786;6.018;2023-11-21T11:19:25;10.10;99.90
23803;DHT22;12082;51.786;6.018;2023-11-21T11:22:18;10.20;99.90
23803;DHT22;12082;51.786;6.018;2023-11-21T11:27:44;10.30;99.90
23803;DHT22;12082;51.786;6.018;2023-11-21T11:30:41;10.20;99.90
23803;DHT22;12082;51.786;6.018;2023-11-21T11:33:39;10.30;99.90
23803;DHT22;12082;51.786;6.018;2023-11-21T11:38:55;10.30;99.90
23803;DHT22;12082;51.786;6.018;2023-11-21T11:41:30;10.20;99.90
23803;DHT22;12082;51.786;6.018;2023-11-21T11:44:00;10.20;99.90
23803;DHT22;12082;51.786;6.018;2023-11-21T11:46:42;10.20;99.90
23803;DHT22;12082;51.786;6.018;2023-11-21T11:49:08;10.10;99.90
23803;DHT22;12082;51.786;6.018;2023-11-21T11:51:34;10.10;99.90
23803;DHT22;12082;51.786;6.018;2023-11-21T11:54:01;10.00;99.90
23803;DHT22;12082;51.786;6.018;2023-11-21T11:56:30;10.00;99.90
23803;DHT22;12082;51.786;6.018;2023-11-21T11:58:59;10.00;99.90
23803;DHT22;12082;51.786;6.018;2023-11-21T12:01:26;10.00;99.90
23803;DHT22;12082;51.786;6.018;2023-11-21T12:06:40;10.00;99.90
23803;DHT22;12082;51.786;6.018;2023-11-21T12:09:06;10.00;99.90
23803;DHT22;12082;51.786;6.018;2023-11-21T12:11:33;10.00;99.90
23803;DHT22;12082;51.786;6.018;2023-11-21T12:14:01;10.00;99.90
23803;DHT22;12082;51.786;6.018;2023-11-21T12:16:27;10.10;99.90
23803;DHT22;12082;51.786;6.018;2023-11-21T12:18:53;10.10;99.90
23803;DHT22;12082;51.786;6.018;2023-11-21T12:21:20;10.20;99.90
23803;DHT22;12082;51.786;6.018;2023-11-21T12:23:46;10.20;99.90
23803;DHT22;12082;51.786;6.018;2023-11-21T12:26:15;10.30;99.90
23803;DHT22;12082;51.786;6.018;2023-11-21T12:28:40;10.30;99.90
23803;DHT22;12082;51.786;6.018;2023-11-21T12:31:06;10.40;99.90
23803;DHT22;12082;51.786;6.018;2023-11-21T12:33:33;10.50;99.90
23803;DHT22;12082;51.786;6.018;2023-11-21T12:35:59;10.60;99.90
23803;DHT22;12082;51.786;6.018;2023-11-21T12:38:24;10.60;99.90
23803;DHT22;12082;51.786;6.018;2023-11-21T12:40:51;10.60;99.90
23803;DHT22;12082;51.786;6.018;2023-11-21T12:43:17;10.60;99.90
23803;DHT22;12082;51.786;6.018;2023-11-21T12:45:43;10.60;99.90
23803;DHT22;12082;51.786;6.018;2023-11-21T12:48:09;11.10;99.90
23803;DHT22;12082;51.786;6.018;2023-11-21T12:50:37;10.60;99.90
23803;DHT22;12082;51.786;6.018;2023-11-21T12:53:05;10.60;99.90
23803;DHT22;12082;51.786;6.018;2023-11-21T12:55:34;10.60;99.90
23803;DHT22;12082;51.786;6.018;2023-11-21T12:58:04;10.60;99.90
23803;DHT22;12082;51.786;6.018;2023-11-21T13:00:42;10.60;99.90
23803;DHT22;12082;51.786;6.018;2023-11-21T13:03:10;10.50;99.90
23803;DHT22;12082;51.786;6.018;2023-11-21T13:05:39;10.40;99.90
23803;DHT22;12082;51.786;6.018;2023-11-21T13:08:08;10.30;99.90
23803;DHT22;12082;51.786;6.018;2023-11-21T13:10:39;10.20;99.90
23803;DHT22;12082;51.786;6.018;2023-11-21T13:13:06;10.20;99.90
23803;DHT22;12082;51.786;6.018;2023-11-21T13:15:35;10.20;99.90
23803;DHT22;12082;51.786;6.018;2023-11-21T13:18:03;10.10;99.90
23803;DHT22;12082;51.786;6.018;2023-11-21T13:20:29;10.00;99.90
23803;DHT22;12082;51.786;6.018;2023-11-21T13:22:56;10.00;99.90
23803;DHT22;12082;51.786;6.018;2023-11-21T13:25:29;9.90;99.90
23803;DHT22;12082;51.786;6.018;2023-11-21T13:27:57;9.90;99.90
23803;DHT22;12082;51.786;6.018;2023-11-21T13:30:24;10.00;99.90
23803;DHT22;12082;51.786;6.018;2023-11-21T13:32:53;10.10;99.90
23803;DHT22;12082;51.786;6.018;2023-11-21T13:35:23;10.10;99.90
23803;DHT22;12082;51.786;6.018;2023-11-21T13:38:11;10.10;99.90
23803;DHT22;12082;51.786;6.018;2023-11-21T13:40:38;10.00;99.90
23803;DHT22;12082;51.786;6.018;2023-11-21T13:43:17;10.00;99.90
23803;DHT22;12082;51.786;6.018;2023-11-21T13:45:47;9.90;99.90
23803;DHT22;12082;51.786;6.018;2023-11-21T13:48:13;9.80;99.90
23803;DHT22;12082;51.786;6.018;2023-11-21T13:50:45;9.80;99.90
23803;DHT22;12082;51.786;6.018;2023-11-21T13:53:26;9.80;99.90
23803;DHT22;12082;51.786;6.018;2023-11-21T13:55:53;9.70;99.90
23803;DHT22;12082;51.786;6.018;2023-11-21T13:58:23;9.70;99.90
23803;DHT22;12082;51.786;6.018;2023-11-21T14:01:07;9.70;99.90
23803;DHT22;12082;51.786;6.018;2023-11-21T14:03:42;9.60;99.90
23803;DHT22;12082;51.786;6.018;2023-11-21T14:06:17;9.70;99.90
23803;DHT22;12082;51.786;6.018;2023-11-21T14:08:50;9.70;99.90
23803;DHT22;12082;51.786;6.018;2023-11-21T14:11:15;9.80;99.90
23803;DHT22;12082;51.786;6.018;2023-11-21T14:13:43;9.80;99.90
23803;DHT22;12082;51.786;6.018;2023-11-21T14:16:13;9.80;99.90
23803;DHT22;12082;51.786;6.018;2023-11-21T14:18:39;9.70;99.90
23803;DHT22;12082;51.786;6.018;2023-11-21T14:21:18;9.70;99.90
23803;DHT22;12082;51.786;6.018;2023-11-21T14:23:43;9.60;99.90
23803;DHT22;12082;51.786;6.018;2023-11-21T14:26:11;9.60;99.90
23803;DHT22;12082;51.786;6.018;2023-11-21T14:28:39;9.60;99.90
23803;DHT22;12082;51.786;6.018;2023-11-21T14:31:05;9.90;99.90
23803;DHT22;12082;51.786;6.018;2023-11-21T14:33:30;9.60;99.90
23803;DHT22;12082;51.786;6.018;2023-11-21T14:35:56;9.60;99.90
23803;DHT22;12082;51.786;6.018;2023-11-21T14:38:23;9.60;99.90
23803;DHT22;12082;51.786;6.018;2023-11-21T14:40:48;9.60;99.90
23803;DHT22;12082;51.786;6.018;2023-11-21T14:43:14;9.60;99.90
23803;DHT22;12082;51.786;6.018;2023-11-21T14:45:41;9.60;99.90
23803;DHT22;12082;51.786;6.018;2023-11-21T14:48:06;9.50;99.90
23803;DHT22;12082;51.786;6.018;2023-11-21T14:50:38;9.50;99.90
23803;DHT22;12082;51.786;6.018;2023-11-21T14:53:14;9.50;99.90
23803;DHT22;12082;51.786;6.018;2023-11-21T14:55:40;9.40;99.90
23803;DHT22;12082;51.786;6.018;2023-11-21T14:58:15;9.40;99.90
23803;DHT22;12082;51.786;6.018;2023-11-21T15:00:47;9.40;99.90
23803;DHT22;12082;51.786;6.018;2023-11-21T15:03:13;9.30;99.90
23803;DHT22;12082;51.786;6.018;2023-11-21T15:06:00;9.30;99.90
23803;DHT22;12082;51.786;6.018;2023-11-21T15:08:49;9.20;99.90
23803;DHT22;12082;51.786;6.018;2023-11-21T15:11:21;9.10;99.90
23803;DHT22;12082;51.786;6.018;2023-11-21T15:13:53;9.00;99.90
23803;DHT22;12082;51.786;6.018;2023-11-21T15:16:19;9.00;99.90
23803;DHT22;12082;51.786;6.018;2023-11-21T15:18:45;8.90;99.90
23803;DHT22;12082;51.786;6.018;2023-11-21T15:21:10;8.90;99.90
23803;DHT22;12082;51.786;6.018;2023-11-21T15:23:37;8.90;99.90
23803;DHT22;12082;51.786;6.018;2023-11-21T15:26:04;8.80;99.90
23803;DHT22;12082;51.786;6.018;2023-11-21T15:28:30;8.90;99.90
23803;DHT22;12082;51.786;6.018;2023-11-21T15:30:57;8.80;99.90
23803;DHT22;12082;51.786;6.018;2023-11-21T15:33:23;8.80;99.90
23803;DHT22;12082;51.786;6.018;2023-11-21T15:35:49;8.80;99.90
23803;DHT22;12082;51.786;6.018;2023-11-21T15:38:14;8.80;99.90
23803;DHT22;12082;51.786;6.018;2023-11-21T15:40:40;8.80;99.90
23803;DHT22;12082;51.786;6.018;2023-11-21T15:43:05;8.80;99.90
23803;DHT22;12082;51.786;6.018;2023-11-21T15:45:32;8.80;99.90
23803;DHT22;12082;51.786;6.018;2023-11-21T15:47:58;8.80;99.90
23803;DHT22;12082;51.786;6.018;2023-11-21T15:50:23;8.70;99.90
23803;DHT22;12082;51.786;6.018;2023-11-21T15:52:50;8.60;99.90
23803;DHT22;12082;51.786;6.018;2023-11-21T15:55:15;8.50;99.90
23803;DHT22;12082;51.786;6.018;2023-11-21T15:57:42;8.40;99.90